sensor_id;sensor_type;location;lat;lon;timestamp;temperature;humidity
48579;DHT22;34357;51.948;6.132;2023-06-04T00:01:35;13.90;61.70
48579;DHT22;34357;51.948;6.132;2023-06-04T00:04:00;13.90;61.80
48579;DHT22;34357;51.948;6.132;2023-06-04T00:06:26;13.90;61.70
48579;DHT22;34357;51.948;6.132;2023-06-04T00:08:53;13.90;62.00
48579;DHT22;34357;51.948;6.132;2023-06-04T00:11:19;13.80;62.40
48579;DHT22;34357;51.948;6.132;2023-06-04T00:13:45;13.70;62.30
48579;DHT22;34357;51.948;6.132;2023-06-04T00:16:11;13.70;62.10
48579;DHT22;34357;51.948;6.132;2023-06-04T00:18:37;13.60;62.60
48579;DHT22;34357;51.948;6.132;2023-06-04T00:21:02;13.50;63.30
48579;DHT22;34357;51.948;6.132;2023-06-04T00:23:28;13.40;63.70
48579;DHT22;34357;51.948;6.132;2023-06-04T00:25:54;13.40;64.40
48579;DHT22;34357;51.948;6.132;2023-06-04T00:28:19;13.40;64.10
48579;DHT22;34357;51.948;6.132;2023-06-04T00:30:46;13.40;64.30
48579;DHT22;34357;51.948;6.132;2023-06-04T00:33:12;13.40;64.20
48579;DHT22;34357;51.948;6.132;2023-06-04T00:35:37;13.20;64.80
48579;DHT22;34357;51.948;6.132;2023-06-04T00:38:03;13.20;64.40
48579;DHT22;34357;51.948;6.132;2023-06-04T00:40:29;13.10;65.20
48579;DHT22;34357;51.948;6.132;2023-06-04T00:42:55;13.00;65.60
48579;DHT22;34357;51.948;6.132;2023-06-04T00:45:21;13.00;65.30
48579;DHT22;34357;51.948;6.132;2023-06-04T00:47:51;12.90;66.10
48579;DHT22;34357;51.948;6.132;2023-06-04T00:50:17;12.90;66.30
48579;DHT22;34357;51.948;6.132;2023-06-04T00:52:43;12.80;66.70
48579;DHT22;34357;51.948;6.132;2023-06-04T00:55:10;12.80;66.50
48579;DHT22;34357;51.948;6.132;2023-06-04T00:57:37;12.70;66.70
48579;DHT22;34357;51.948;6.132;2023-06-04T01:00:03;12.70;66.60
48579;DHT22;34357;51.948;6.132;2023-06-04T01:02:31;12.70;65.90
48579;DHT22;34357;51.948;6.132;2023-06-04T01:07:44;12.70;65.80
48579;DHT22;34357;51.948;6.132;2023-06-04T01:10:13;12.60;65.80
48579;DHT22;34357;51.948;6.132;2023-06-04T01:12:43;12.60;66.10
48579;DHT22;34357;51.948;6.132;2023-06-04T01:15:10;12.50;66.60
48579;DHT22;34357;51.948;6.132;2023-06-04T01:17:43;12.50;66.30
48579;DHT22;34357;51.948;6.132;2023-06-04T01:25:32;12.40;67.00
48579;DHT22;34357;51.948;6.132;2023-06-04T01:27:58;12.40;66.70
48579;DHT22;34357;51.948;6.132;2023-06-04T01:30:36;12.40;66.40
48579;DHT22;34357;51.948;6.132;2023-06-04T01:33:09;12.40;66.10
48579;DHT22;34357;51.948;6.132;2023-06-04T01:35:37;12.40;66.10
48579;DHT22;34357;51.948;6.132;2023-06-04T01:38:03;12.30;66.40
48579;DHT22;34357;51.948;6.132;2023-06-04T01:40:29;12.10;67.10
48579;DHT22;34357;51.948;6.132;2023-06-04T01:42:55;12.20;67.30
48579;DHT22;34357;51.948;6.132;2023-06-04T01:45:22;12.10;67.60
48579;DHT22;34357;51.948;6.132;2023-06-04T01:47:48;12.10;67.60
48579;DHT22;34357;51.948;6.132;2023-06-04T01:50:14;12.10;67.80
48579;DHT22;34357;51.948;6.132;2023-06-04T01:52:40;12.10;67.90
48579;DHT22;34357;51.948;6.132;2023-06-04T01:55:07;12.00;68.10
48579;DHT22;34357;51.948;6.132;2023-06-04T01:57:34;11.90;68.50
48579;DHT22;34357;51.948;6.132;2023-06-04T02:00:02;11.80;68.70
48579;DHT22;34357;51.948;6.132;2023-06-04T02:02:40;11.90;68.60
48579;DHT22;34357;51.948;6.132;2023-06-04T02:05:09;11.90;68.10
48579;DHT22;34357;51.948;6.132;2023-06-04T02:07:40;11.90;68.40
48579;DHT22;34357;51.948;6.132;2023-06-04T02:12:37;11.80;68.30
48579;DHT22;34357;51.948;6.132;2023-06-04T02:15:04;11.80;68.20
48579;DHT22;34357;51.948;6.132;2023-06-04T02:17:30;11.80;67.90
48579;DHT22;34357;51.948;6.132;2023-06-04T02:19:58;11.70;68.30
48579;DHT22;34357;51.948;6.132;2023-06-04T02:22:25;11.70;68.40
48579;DHT22;34357;51.948;6.132;2023-06-04T02:24:51;11.60;68.30
48579;DHT22;34357;51.948;6.132;2023-06-04T02:27:17;11.70;68.50
48579;DHT22;34357;51.948;6.132;2023-06-04T02:29:43;11.60;68.70
48579;DHT22;34357;51.948;6.132;2023-06-04T02:32:09;11.60;68.90
48579;DHT22;34357;51.948;6.132;2023-06-04T02:34:35;11.60;68.80
48579;DHT22;34357;51.948;6.132;2023-06-04T02:37:02;11.60;68.70
48579;DHT22;34357;51.948;6.132;2023-06-04T02:39:28;11.60;68.60
48579;DHT22;34357;51.948;6.132;2023-06-04T02:41:54;11.50;69.10
48579;DHT22;34357;51.948;6.132;2023-06-04T02:44:20;11.50;69.20
48579;DHT22;34357;51.948;6.132;2023-06-04T02:46:46;11.40;69.20
48579;DHT22;34357;51.948;6.132;2023-06-04T02:49:12;11.40;69.30
48579;DHT22;34357;51.948;6.132;2023-06-04T02:51:45;11.40;69.30
48579;DHT22;34357;51.948;6.132;2023-06-04T02:54:11;11.40;69.20
48579;DHT22;34357;51.948;6.132;2023-06-04T02:56:37;11.40;69.40
48579;DHT22;34357;51.948;6.132;2023-06-04T02:59:04;11.30;69.50
48579;DHT22;34357;51.948;6.132;2023-06-04T03:01:30;11.30;69.20
48579;DHT22;34357;51.948;6.132;2023-06-04T03:03:56;11.30;69.90
48579;DHT22;34357;51.948;6.132;2023-06-04T03:06:29;11.30;69.50
48579;DHT22;34357;51.948;6.132;2023-06-04T03:08:55;11.30;69.60
48579;DHT22;34357;51.948;6.132;2023-06-04T03:11:22;11.20;69.70
48579;DHT22;34357;51.948;6.132;2023-06-04T03:13:48;11.20;70.00
48579;DHT22;34357;51.948;6.132;2023-06-04T03:16:14;11.20;69.70
48579;DHT22;34357;51.948;6.132;2023-06-04T03:18:41;11.20;69.80
48579;DHT22;34357;51.948;6.132;2023-06-04T03:21:08;11.20;70.10
48579;DHT22;34357;51.948;6.132;2023-06-04T03:23:35;11.10;69.60
48579;DHT22;34357;51.948;6.132;2023-06-04T03:26:01;11.10;69.50
48579;DHT22;34357;51.948;6.132;2023-06-04T03:28:28;11.00;70.00
48579;DHT22;34357;51.948;6.132;2023-06-04T03:30:53;11.00;70.30
48579;DHT22;34357;51.948;6.132;2023-06-04T03:33:21;11.00;70.50
48579;DHT22;34357;51.948;6.132;2023-06-04T03:35:46;11.00;70.20
48579;DHT22;34357;51.948;6.132;2023-06-04T03:38:14;11.00;70.30
48579;DHT22;34357;51.948;6.132;2023-06-04T03:40:42;11.00;70.30
48579;DHT22;34357;51.948;6.132;2023-06-04T03:43:10;11.00;70.80
48579;DHT22;34357;51.948;6.132;2023-06-04T03:45:36;10.90;70.60
48579;DHT22;34357;51.948;6.132;2023-06-04T03:48:02;10.90;70.60
48579;DHT22;34357;51.948;6.132;2023-06-04T03:50:29;10.90;70.70
48579;DHT22;34357;51.948;6.132;2023-06-04T03:52:56;10.90;71.20
48579;DHT22;34357;51.948;6.132;2023-06-04T03:55:22;10.90;71.60
48579;DHT22;34357;51.948;6.132;2023-06-04T03:57:50;10.90;71.20
48579;DHT22;34357;51.948;6.132;2023-06-04T04:00:16;10.90;71.30
48579;DHT22;34357;51.948;6.132;2023-06-04T04:02:48;10.90;71.70
48579;DHT22;34357;51.948;6.132;2023-06-04T04:05:21;10.90;71.60
48579;DHT22;34357;51.948;6.132;2023-06-04T04:07:48;10.90;71.60
48579;DHT22;34357;51.948;6.132;2023-06-04T04:10:17;10.90;71.90
48579;DHT22;34357;51.948;6.132;2023-06-04T04:12:43;10.90;72.00
48579;DHT22;34357;51.948;6.132;2023-06-04T04:15:09;10.90;72.00
48579;DHT22;34357;51.948;6.132;2023-06-04T04:17:36;10.90;72.50
48579;DHT22;34357;51.948;6.132;2023-06-04T04:20:01;10.90;72.80
48579;DHT22;34357;51.948;6.132;2023-06-04T04:22:30;11.00;72.40
48579;DHT22;34357;51.948;6.132;2023-06-04T04:24:57;10.90;72.70
48579;DHT22;34357;51.948;6.132;2023-06-04T04:27:23;10.90;72.90
48579;DHT22;34357;51.948;6.132;2023-06-04T04:29:49;10.90;72.90
48579;DHT22;34357;51.948;6.132;2023-06-04T04:32:16;10.90;73.10
48579;DHT22;34357;51.948;6.132;2023-06-04T04:34:53;10.90;73.30
48579;DHT22;34357;51.948;6.132;2023-06-04T04:37:24;11.00;73.30
48579;DHT22;34357;51.948;6.132;2023-06-04T04:39:52;11.10;72.80
48579;DHT22;34357;51.948;6.132;2023-06-04T04:42:20;11.10;73.20
48579;DHT22;34357;51.948;6.132;2023-06-04T04:44:49;11.10;73.10
48579;DHT22;34357;51.948;6.132;2023-06-04T04:47:17;11.10;73.20
48579;DHT22;34357;51.948;6.132;2023-06-04T04:49:43;11.20;73.00
48579;DHT22;34357;51.948;6.132;2023-06-04T04:52:09;11.20;72.80
48579;DHT22;34357;51.948;6.132;2023-06-04T04:54:37;11.30;73.10
48579;DHT22;34357;51.948;6.132;2023-06-04T04:57:03;11.30;72.90
48579;DHT22;34357;51.948;6.132;2023-06-04T04:59:29;11.40;72.90
48579;DHT22;34357;51.948;6.132;2023-06-04T05:01:57;11.40;73.20
48579;DHT22;34357;51.948;6.132;2023-06-04T05:04:23;11.40;73.10
48579;DHT22;34357;51.948;6.132;2023-06-04T05:06:50;11.40;73.10
48579;DHT22;34357;51.948;6.132;2023-06-04T05:09:16;11.40;73.20
48579;DHT22;34357;51.948;6.132;2023-06-04T05:11:42;11.50;72.90
48579;DHT22;34357;51.948;6.132;2023-06-04T05:14:09;11.50;72.90
48579;DHT22;34357;51.948;6.132;2023-06-04T05:16:36;11.60;72.90
48579;DHT22;34357;51.948;6.132;2023-06-04T05:19:04;11.60;72.90
48579;DHT22;34357;51.948;6.132;2023-06-04T05:21:33;11.70;73.00
48579;DHT22;34357;51.948;6.132;2023-06-04T05:24:03;11.70;72.90
48579;DHT22;34357;51.948;6.132;2023-06-04T05:26:33;11.70;72.90
48579;DHT22;34357;51.948;6.132;2023-06-04T05:29:03;11.90;73.20
48579;DHT22;34357;51.948;6.132;2023-06-04T05:31:33;11.90;72.50
48579;DHT22;34357;51.948;6.132;2023-06-04T05:34:01;12.00;72.20
48579;DHT22;34357;51.948;6.132;2023-06-04T05:36:30;12.00;72.20
48579;DHT22;34357;51.948;6.132;2023-06-04T05:38:58;12.10;72.10
48579;DHT22;34357;51.948;6.132;2023-06-04T05:41:31;12.20;72.20
48579;DHT22;34357;51.948;6.132;2023-06-04T05:43:57;12.20;72.20
48579;DHT22;34357;51.948;6.132;2023-06-04T05:46:23;12.30;72.20
48579;DHT22;34357;51.948;6.132;2023-06-04T05:48:49;12.40;71.60
48579;DHT22;34357;51.948;6.132;2023-06-04T05:51:17;12.50;71.20
48579;DHT22;34357;51.948;6.132;2023-06-04T05:53:44;12.60;70.40
48579;DHT22;34357;51.948;6.132;2023-06-04T05:56:09;12.60;70.80
48579;DHT22;34357;51.948;6.132;2023-06-04T05:58:36;12.70;71.50
48579;DHT22;34357;51.948;6.132;2023-06-04T06:01:03;12.70;71.00
48579;DHT22;34357;51.948;6.132;2023-06-04T06:03:29;12.90;70.60
48579;DHT22;34357;51.948;6.132;2023-06-04T06:05:56;13.00;70.60
48579;DHT22;34357;51.948;6.132;2023-06-04T06:08:24;13.10;70.50
48579;DHT22;34357;51.948;6.132;2023-06-04T06:10:50;13.20;69.40
48579;DHT22;34357;51.948;6.132;2023-06-04T06:13:16;13.30;69.20
48579;DHT22;34357;51.948;6.132;2023-06-04T06:15:42;13.40;69.30
48579;DHT22;34357;51.948;6.132;2023-06-04T06:18:08;13.40;69.30
48579;DHT22;34357;51.948;6.132;2023-06-04T06:20:34;13.40;69.40
48579;DHT22;34357;51.948;6.132;2023-06-04T06:23:07;13.60;68.90
48579;DHT22;34357;51.948;6.132;2023-06-04T06:25:34;13.40;69.70
48579;DHT22;34357;51.948;6.132;2023-06-04T06:28:07;13.70;68.80
48579;DHT22;34357;51.948;6.132;2023-06-04T06:30:34;13.90;68.90
48579;DHT22;34357;51.948;6.132;2023-06-04T06:33:00;13.80;68.60
48579;DHT22;34357;51.948;6.132;2023-06-04T06:35:26;13.90;69.00
48579;DHT22;34357;51.948;6.132;2023-06-04T06:37:51;14.00;68.00
48579;DHT22;34357;51.948;6.132;2023-06-04T06:40:17;14.10;68.00
48579;DHT22;34357;51.948;6.132;2023-06-04T06:42:48;14.10;68.30
48579;DHT22;34357;51.948;6.132;2023-06-04T06:45:14;14.30;67.90
48579;DHT22;34357;51.948;6.132;2023-06-04T06:47:40;14.40;67.00
48579;DHT22;34357;51.948;6.132;2023-06-04T06:50:07;14.50;67.00
48579;DHT22;34357;51.948;6.132;2023-06-04T06:52:32;14.80;66.90
48579;DHT22;34357;51.948;6.132;2023-06-04T06:54:58;15.40;66.20
48579;DHT22;34357;51.948;6.132;2023-06-04T06:57:24;15.80;64.30
48579;DHT22;34357;51.948;6.132;2023-06-04T06:59:50;16.20;64.00
48579;DHT22;34357;51.948;6.132;2023-06-04T07:02:17;16.90;60.90
48579;DHT22;34357;51.948;6.132;2023-06-04T07:04:43;17.00;59.80
48579;DHT22;34357;51.948;6.132;2023-06-04T07:07:08;17.20;58.80
48579;DHT22;34357;51.948;6.132;2023-06-04T07:09:34;17.50;58.10
48579;DHT22;34357;51.948;6.132;2023-06-04T07:12:00;18.00;57.70
48579;DHT22;34357;51.948;6.132;2023-06-04T07:14:26;18.60;55.90
48579;DHT22;34357;51.948;6.132;2023-06-04T07:16:51;18.90;54.80
48579;DHT22;34357;51.948;6.132;2023-06-04T07:19:17;19.40;53.90
48579;DHT22;34357;51.948;6.132;2023-06-04T07:21:43;19.70;51.60
48579;DHT22;34357;51.948;6.132;2023-06-04T07:24:08;19.90;52.10
48579;DHT22;34357;51.948;6.132;2023-06-04T07:26:34;20.30;51.20
48579;DHT22;34357;51.948;6.132;2023-06-04T07:29:00;20.40;50.80
48579;DHT22;34357;51.948;6.132;2023-06-04T07:31:25;20.60;48.80
48579;DHT22;34357;51.948;6.132;2023-06-04T07:33:51;20.50;48.90
48579;DHT22;34357;51.948;6.132;2023-06-04T07:36:17;20.40;51.70
48579;DHT22;34357;51.948;6.132;2023-06-04T07:38:43;20.60;50.40
48579;DHT22;34357;51.948;6.132;2023-06-04T07:41:09;20.90;48.10
48579;DHT22;34357;51.948;6.132;2023-06-04T07:43:36;21.30;46.50
48579;DHT22;34357;51.948;6.132;2023-06-04T07:46:05;21.20;47.40
48579;DHT22;34357;51.948;6.132;2023-06-04T07:48:31;20.90;49.40
48579;DHT22;34357;51.948;6.132;2023-06-04T07:50:58;21.50;48.00
48579;DHT22;34357;51.948;6.132;2023-06-04T07:53:24;22.00;44.50
48579;DHT22;34357;51.948;6.132;2023-06-04T07:55:50;21.90;45.50
48579;DHT22;34357;51.948;6.132;2023-06-04T07:58:16;21.90;46.40
48579;DHT22;34357;51.948;6.132;2023-06-04T08:00:42;22.40;45.10
48579;DHT22;34357;51.948;6.132;2023-06-04T08:03:08;22.80;43.60
48579;DHT22;34357;51.948;6.132;2023-06-04T08:05:34;22.90;43.60
48579;DHT22;34357;51.948;6.132;2023-06-04T08:08:00;23.20;42.60
48579;DHT22;34357;51.948;6.132;2023-06-04T08:10:26;22.60;43.40
48579;DHT22;34357;51.948;6.132;2023-06-04T08:12:52;22.00;45.50
48579;DHT22;34357;51.948;6.132;2023-06-04T08:15:18;22.10;44.60
48579;DHT22;34357;51.948;6.132;2023-06-04T08:17:43;22.40;44.40
48579;DHT22;34357;51.948;6.132;2023-06-04T08:20:09;22.80;43.00
48579;DHT22;34357;51.948;6.132;2023-06-04T08:22:35;22.90;43.80
48579;DHT22;34357;51.948;6.132;2023-06-04T08:25:01;23.00;43.70
48579;DHT22;34357;51.948;6.132;2023-06-04T08:27:26;23.60;41.30
48579;DHT22;34357;51.948;6.132;2023-06-04T08:29:52;23.00;42.90
48579;DHT22;34357;51.948;6.132;2023-06-04T08:32:18;22.30;43.50
48579;DHT22;34357;51.948;6.132;2023-06-04T08:34:44;22.30;43.80
48579;DHT22;34357;51.948;6.132;2023-06-04T08:37:10;22.20;45.60
48579;DHT22;34357;51.948;6.132;2023-06-04T08:39:36;22.90;43.10
48579;DHT22;34357;51.948;6.132;2023-06-04T08:42:05;22.60;43.70
48579;DHT22;34357;51.948;6.132;2023-06-04T08:44:33;22.00;44.00
48579;DHT22;34357;51.948;6.132;2023-06-04T08:47:03;22.10;44.10
48579;DHT22;34357;51.948;6.132;2023-06-04T08:49:34;22.70;43.20
48579;DHT22;34357;51.948;6.132;2023-06-04T08:52:03;22.80;42.00
48579;DHT22;34357;51.948;6.132;2023-06-04T08:54:29;23.00;40.70
48579;DHT22;34357;51.948;6.132;2023-06-04T08:56:57;22.90;42.40
48579;DHT22;34357;51.948;6.132;2023-06-04T08:59:27;22.50;42.40
48579;DHT22;34357;51.948;6.132;2023-06-04T09:01:54;22.90;41.90
48579;DHT22;34357;51.948;6.132;2023-06-04T09:04:20;23.70;39.60
48579;DHT22;34357;51.948;6.132;2023-06-04T09:06:47;23.40;41.20
48579;DHT22;34357;51.948;6.132;2023-06-04T09:09:14;23.30;39.60
48579;DHT22;34357;51.948;6.132;2023-06-04T09:11:55;23.50;38.70
48579;DHT22;34357;51.948;6.132;2023-06-04T09:14:22;23.60;40.10
48579;DHT22;34357;51.948;6.132;2023-06-04T09:16:52;23.90;40.60
48579;DHT22;34357;51.948;6.132;2023-06-04T09:19:19;24.10;38.10
48579;DHT22;34357;51.948;6.132;2023-06-04T09:24:15;24.20;34.10
48579;DHT22;34357;51.948;6.132;2023-06-04T09:26:40;24.40;34.70
48579;DHT22;34357;51.948;6.132;2023-06-04T09:29:06;24.10;35.00
48579;DHT22;34357;51.948;6.132;2023-06-04T09:31:32;24.00;36.60
48579;DHT22;34357;51.948;6.132;2023-06-04T09:34:03;24.10;35.80
48579;DHT22;34357;51.948;6.132;2023-06-04T09:36:33;24.00;34.70
48579;DHT22;34357;51.948;6.132;2023-06-04T09:39:00;24.40;35.60
48579;DHT22;34357;51.948;6.132;2023-06-04T09:41:26;24.50;34.60
48579;DHT22;34357;51.948;6.132;2023-06-04T09:44:04;24.70;32.30
48579;DHT22;34357;51.948;6.132;2023-06-04T09:46:31;23.80;34.40
48579;DHT22;34357;51.948;6.132;2023-06-04T09:49:04;24.10;34.70
48579;DHT22;34357;51.948;6.132;2023-06-04T09:51:31;24.20;36.80
48579;DHT22;34357;51.948;6.132;2023-06-04T09:53:59;24.60;33.70
48579;DHT22;34357;51.948;6.132;2023-06-04T09:56:26;25.10;31.50
48579;DHT22;34357;51.948;6.132;2023-06-04T09:58:58;25.00;29.80
48579;DHT22;34357;51.948;6.132;2023-06-04T10:01:28;25.00;31.00
48579;DHT22;34357;51.948;6.132;2023-06-04T10:03:54;24.70;31.90
48579;DHT22;34357;51.948;6.132;2023-06-04T10:06:22;24.90;30.50
48579;DHT22;34357;51.948;6.132;2023-06-04T10:08:49;25.00;32.00
48579;DHT22;34357;51.948;6.132;2023-06-04T10:11:20;25.10;30.30
48579;DHT22;34357;51.948;6.132;2023-06-04T10:16:17;24.60;31.10
48579;DHT22;34357;51.948;6.132;2023-06-04T10:18:43;24.90;30.70
48579;DHT22;34357;51.948;6.132;2023-06-04T10:21:10;25.00;30.40
48579;DHT22;34357;51.948;6.132;2023-06-04T10:23:39;25.10;31.30
48579;DHT22;34357;51.948;6.132;2023-06-04T10:26:06;25.20;29.60
48579;DHT22;34357;51.948;6.132;2023-06-04T10:28:33;25.10;30.80
48579;DHT22;34357;51.948;6.132;2023-06-04T10:31:00;24.90;32.90
48579;DHT22;34357;51.948;6.132;2023-06-04T10:33:26;24.90;31.60
48579;DHT22;34357;51.948;6.132;2023-06-04T10:35:54;25.00;30.50
48579;DHT22;34357;51.948;6.132;2023-06-04T10:38:23;25.00;29.70
48579;DHT22;34357;51.948;6.132;2023-06-04T10:40:49;25.20;30.60
48579;DHT22;34357;51.948;6.132;2023-06-04T10:43:15;25.30;30.10
48579;DHT22;34357;51.948;6.132;2023-06-04T10:45:44;24.60;30.60
48579;DHT22;34357;51.948;6.132;2023-06-04T10:48:12;24.90;31.40
48579;DHT22;34357;51.948;6.132;2023-06-04T10:50:53;25.20;29.90
48579;DHT22;34357;51.948;6.132;2023-06-04T10:53:19;25.10;29.60
48579;DHT22;34357;51.948;6.132;2023-06-04T10:55:47;24.90;30.10
48579;DHT22;34357;51.948;6.132;2023-06-04T10:58:13;25.20;29.10
48579;DHT22;34357;51.948;6.132;2023-06-04T11:00:41;24.80;30.10
48579;DHT22;34357;51.948;6.132;2023-06-04T11:03:08;25.00;31.50
48579;DHT22;34357;51.948;6.132;2023-06-04T11:05:39;24.90;31.30
48579;DHT22;34357;51.948;6.132;2023-06-04T11:08:06;25.20;30.30
48579;DHT22;34357;51.948;6.132;2023-06-04T11:10:37;25.20;29.60
48579;DHT22;34357;51.948;6.132;2023-06-04T11:13:04;25.00;30.40
48579;DHT22;34357;51.948;6.132;2023-06-04T11:15:44;25.00;30.40
48579;DHT22;34357;51.948;6.132;2023-06-04T11:18:17;25.10;30.60
48579;DHT22;34357;51.948;6.132;2023-06-04T11:20:48;25.00;31.30
48579;DHT22;34357;51.948;6.132;2023-06-04T11:23:15;24.90;31.00
48579;DHT22;34357;51.948;6.132;2023-06-04T11:25:42;24.80;31.50
48579;DHT22;34357;51.948;6.132;2023-06-04T11:28:16;24.90;30.80
48579;DHT22;34357;51.948;6.132;2023-06-04T11:31:16;24.90;30.60
48579;DHT22;34357;51.948;6.132;2023-06-04T11:33:43;24.70;31.60
48579;DHT22;34357;51.948;6.132;2023-06-04T11:36:09;24.60;31.60
48579;DHT22;34357;51.948;6.132;2023-06-04T11:38:35;24.70;30.70
48579;DHT22;34357;51.948;6.132;2023-06-04T11:41:02;24.90;30.40
48579;DHT22;34357;51.948;6.132;2023-06-04T11:43:30;25.20;30.30
48579;DHT22;34357;51.948;6.132;2023-06-04T11:45:58;25.20;31.10
48579;DHT22;34357;51.948;6.132;2023-06-04T11:48:24;24.80;30.90
48579;DHT22;34357;51.948;6.132;2023-06-04T11:50:49;24.70;32.30
48579;DHT22;34357;51.948;6.132;2023-06-04T11:53:15;24.90;32.30
48579;DHT22;34357;51.948;6.132;2023-06-04T11:55:42;25.20;33.70
48579;DHT22;34357;51.948;6.132;2023-06-04T11:58:08;25.40;31.90
48579;DHT22;34357;51.948;6.132;2023-06-04T12:00:33;25.20;35.70
48579;DHT22;34357;51.948;6.132;2023-06-04T12:02:59;24.70;31.90
48579;DHT22;34357;51.948;6.132;2023-06-04T12:05:32;24.60;32.10
48579;DHT22;34357;51.948;6.132;2023-06-04T12:08:09;25.10;31.20
48579;DHT22;34357;51.948;6.132;2023-06-04T12:10:42;25.00;30.30
48579;DHT22;34357;51.948;6.132;2023-06-04T12:13:09;24.90;31.10
48579;DHT22;34357;51.948;6.132;2023-06-04T12:15:35;25.10;31.90
48579;DHT22;34357;51.948;6.132;2023-06-04T12:18:01;25.10;31.90
48579;DHT22;34357;51.948;6.132;2023-06-04T12:20:33;25.20;31.40
48579;DHT22;34357;51.948;6.132;2023-06-04T12:23:00;25.00;34.50
48579;DHT22;34357;51.948;6.132;2023-06-04T12:25:29;25.10;32.50
48579;DHT22;34357;51.948;6.132;2023-06-04T12:27:55;25.30;32.60
48579;DHT22;34357;51.948;6.132;2023-06-04T12:30:22;25.40;31.10
48579;DHT22;34357;51.948;6.132;2023-06-04T12:32:48;25.40;30.20
48579;DHT22;34357;51.948;6.132;2023-06-04T12:35:14;25.50;30.50
48579;DHT22;34357;51.948;6.132;2023-06-04T12:37:41;25.50;29.50
48579;DHT22;34357;51.948;6.132;2023-06-04T12:40:08;25.30;30.90
48579;DHT22;34357;51.948;6.132;2023-06-04T12:42:34;25.10;31.90
48579;DHT22;34357;51.948;6.132;2023-06-04T12:45:00;25.30;32.60
48579;DHT22;34357;51.948;6.132;2023-06-04T12:47:26;25.10;30.80
48579;DHT22;34357;51.948;6.132;2023-06-04T12:49:51;25.00;31.20
48579;DHT22;34357;51.948;6.132;2023-06-04T12:52:18;25.00;31.30
48579;DHT22;34357;51.948;6.132;2023-06-04T12:54:43;25.10;32.10
48579;DHT22;34357;51.948;6.132;2023-06-04T12:57:09;25.20;32.50
48579;DHT22;34357;51.948;6.132;2023-06-04T12:59:35;25.00;32.30
48579;DHT22;34357;51.948;6.132;2023-06-04T13:02:01;25.40;32.30
48579;DHT22;34357;51.948;6.132;2023-06-04T13:04:27;25.30;32.90
48579;DHT22;34357;51.948;6.132;2023-06-04T13:06:53;25.20;31.80
48579;DHT22;34357;51.948;6.132;2023-06-04T13:09:24;25.10;31.90
48579;DHT22;34357;51.948;6.132;2023-06-04T13:11:50;25.30;31.20
48579;DHT22;34357;51.948;6.132;2023-06-04T13:14:16;25.30;31.10
48579;DHT22;34357;51.948;6.132;2023-06-04T13:16:42;25.40;31.10
48579;DHT22;34357;51.948;6.132;2023-06-04T13:19:08;25.20;32.00
48579;DHT22;34357;51.948;6.132;2023-06-04T13:21:34;25.40;32.60
48579;DHT22;34357;51.948;6.132;2023-06-04T13:24:00;25.40;30.80
48579;DHT22;34357;51.948;6.132;2023-06-04T13:26:26;25.20;30.80
48579;DHT22;34357;51.948;6.132;2023-06-04T13:28:52;25.20;31.30
48579;DHT22;34357;51.948;6.132;2023-06-04T13:31:17;25.20;32.20
48579;DHT22;34357;51.948;6.132;2023-06-04T13:33:43;25.20;32.40
48579;DHT22;34357;51.948;6.132;2023-06-04T13:36:09;25.40;32.50
48579;DHT22;34357;51.948;6.132;2023-06-04T13:38:35;25.30;32.60
48579;DHT22;34357;51.948;6.132;2023-06-04T13:41:01;25.20;32.60
48579;DHT22;34357;51.948;6.132;2023-06-04T13:43:27;25.30;32.80
48579;DHT22;34357;51.948;6.132;2023-06-04T13:45:52;25.50;32.30
48579;DHT22;34357;51.948;6.132;2023-06-04T13:48:18;25.30;31.80
48579;DHT22;34357;51.948;6.132;2023-06-04T13:50:44;25.00;32.50
48579;DHT22;34357;51.948;6.132;2023-06-04T13:53:10;24.90;33.70
48579;DHT22;34357;51.948;6.132;2023-06-04T13:55:39;25.20;34.60
48579;DHT22;34357;51.948;6.132;2023-06-04T13:58:05;25.30;33.50
48579;DHT22;34357;51.948;6.132;2023-06-04T14:00:31;25.40;34.30
48579;DHT22;34357;51.948;6.132;2023-06-04T14:02:57;25.40;32.40
48579;DHT22;34357;51.948;6.132;2023-06-04T14:05:24;25.30;32.40
48579;DHT22;34357;51.948;6.132;2023-06-04T14:07:52;25.30;33.50
48579;DHT22;34357;51.948;6.132;2023-06-04T14:10:18;25.40;32.60
48579;DHT22;34357;51.948;6.132;2023-06-04T14:12:44;25.20;33.90
48579;DHT22;34357;51.948;6.132;2023-06-04T14:15:10;25.20;33.00
48579;DHT22;34357;51.948;6.132;2023-06-04T14:17:38;24.90;32.60
48579;DHT22;34357;51.948;6.132;2023-06-04T14:20:05;24.80;32.70
48579;DHT22;34357;51.948;6.132;2023-06-04T14:22:38;24.80;33.20
48579;DHT22;34357;51.948;6.132;2023-06-04T14:25:06;24.80;34.50
48579;DHT22;34357;51.948;6.132;2023-06-04T14:27:32;25.00;33.90
48579;DHT22;34357;51.948;6.132;2023-06-04T14:29:58;25.10;34.00
48579;DHT22;34357;51.948;6.132;2023-06-04T14:32:24;25.20;33.80
48579;DHT22;34357;51.948;6.132;2023-06-04T14:34:50;25.10;33.40
48579;DHT22;34357;51.948;6.132;2023-06-04T14:37:16;25.30;33.80
48579;DHT22;34357;51.948;6.132;2023-06-04T14:39:42;25.20;33.00
48579;DHT22;34357;51.948;6.132;2023-06-04T14:42:08;25.00;33.20
48579;DHT22;34357;51.948;6.132;2023-06-04T14:44:33;24.90;33.80
48579;DHT22;34357;51.948;6.132;2023-06-04T14:46:59;25.00;33.50
48579;DHT22;34357;51.948;6.132;2023-06-04T14:49:25;25.00;34.20
48579;DHT22;34357;51.948;6.132;2023-06-04T14:51:51;24.90;34.30
48579;DHT22;34357;51.948;6.132;2023-06-04T14:54:16;24.90;33.30
48579;DHT22;34357;51.948;6.132;2023-06-04T14:56:42;25.00;33.30
48579;DHT22;34357;51.948;6.132;2023-06-04T14:59:09;24.90;33.20
48579;DHT22;34357;51.948;6.132;2023-06-04T15:01:40;24.90;33.50
48579;DHT22;34357;51.948;6.132;2023-06-04T15:04:07;24.80;33.00
48579;DHT22;34357;51.948;6.132;2023-06-04T15:06:33;24.70;34.90
48579;DHT22;34357;51.948;6.132;2023-06-04T15:08:59;24.80;33.70
48579;DHT22;34357;51.948;6.132;2023-06-04T15:11:25;24.80;33.20
48579;DHT22;34357;51.948;6.132;2023-06-04T15:13:52;24.80;34.10
48579;DHT22;34357;51.948;6.132;2023-06-04T15:16:18;24.80;33.20
48579;DHT22;34357;51.948;6.132;2023-06-04T15:18:44;24.80;32.60
48579;DHT22;34357;51.948;6.132;2023-06-04T15:21:09;24.70;33.20
48579;DHT22;34357;51.948;6.132;2023-06-04T15:23:35;24.80;32.90
48579;DHT22;34357;51.948;6.132;2023-06-04T15:26:02;24.80;33.10
48579;DHT22;34357;51.948;6.132;2023-06-04T15:28:28;24.80;33.10
48579;DHT22;34357;51.948;6.132;2023-06-04T15:30:54;24.70;33.70
48579;DHT22;34357;51.948;6.132;2023-06-04T15:33:19;24.70;33.20
48579;DHT22;34357;51.948;6.132;2023-06-04T15:35:45;24.60;33.30
48579;DHT22;34357;51.948;6.132;2023-06-04T15:38:11;24.80;34.90
48579;DHT22;34357;51.948;6.132;2023-06-04T15:40:36;24.70;36.20
48579;DHT22;34357;51.948;6.132;2023-06-04T15:43:02;24.70;34.40
48579;DHT22;34357;51.948;6.132;2023-06-04T15:45:28;24.60;34.00